sensor_id;sensor_type;location;lat;lon;timestamp;P1;durP1;ratioP1;P2;durP2;ratioP2
33644;SDS011;19986;48.190;16.366;2022-09-14T00:01:08;34.30;;;32.45;;
33644;SDS011;19986;48.190;16.366;2022-09-14T00:03:38;33.00;;;30.88;;
33644;SDS011;19986;48.190;16.366;2022-09-14T00:06:08;33.72;;;31.80;;
33644;SDS011;19986;48.190;16.366;2022-09-14T00:08:35;31.48;;;29.80;;
33644;SDS011;19986;48.190;16.366;2022-09-14T00:11:03;31.30;;;29.60;;
33644;SDS011;19986;48.190;16.366;2022-09-14T00:13:31;30.65;;;29.13;;
33644;SDS011;19986;48.190;16.366;2022-09-14T00:16:01;32.95;;;31.17;;
33644;SDS011;19986;48.190;16.366;2022-09-14T00:18:31;32.08;;;30.35;;
33644;SDS011;19986;48.190;16.366;2022-09-14T00:20:59;31.10;;;29.25;;
33644;SDS011;19986;48.190;16.366;2022-09-14T00:23:26;32.30;;;30.33;;
33644;SDS011;19986;48.190;16.366;2022-09-14T00:25:52;34.33;;;32.13;;
33644;SDS011;19986;48.190;16.366;2022-09-14T00:28:18;31.23;;;29.25;;
33644;SDS011;19986;48.190;16.366;2022-09-14T00:30:44;31.90;;;29.90;;
33644;SDS011;19986;48.190;16.366;2022-09-14T00:33:11;32.42;;;30.58;;
33644;SDS011;19986;48.190;16.366;2022-09-14T00:35:37;32.25;;;30.45;;
33644;SDS011;19986;48.190;16.366;2022-09-14T00:38:04;31.98;;;30.25;;
33644;SDS011;19986;48.190;16.366;2022-09-14T00:40:32;32.55;;;30.60;;
33644;SDS011;19986;48.190;16.366;2022-09-14T00:42:58;34.53;;;32.25;;
33644;SDS011;19986;48.190;16.366;2022-09-14T00:45:24;33.67;;;31.55;;
33644;SDS011;19986;48.190;16.366;2022-09-14T00:47:50;33.92;;;31.92;;
33644;SDS011;19986;48.190;16.366;2022-09-14T00:50:18;32.08;;;30.35;;
33644;SDS011;19986;48.190;16.366;2022-09-14T00:52:45;33.33;;;31.38;;
33644;SDS011;19986;48.190;16.366;2022-09-14T00:55:15;33.63;;;31.52;;
33644;SDS011;19986;48.190;16.366;2022-09-14T00:57:47;33.45;;;31.55;;
33644;SDS011;19986;48.190;16.366;2022-09-14T01:00:18;32.58;;;30.70;;
33644;SDS011;19986;48.190;16.366;2022-09-14T01:02:46;31.70;;;30.00;;
33644;SDS011;19986;48.190;16.366;2022-09-14T01:05:12;32.95;;;30.83;;
33644;SDS011;19986;48.190;16.366;2022-09-14T01:07:42;34.67;;;32.38;;
33644;SDS011;19986;48.190;16.366;2022-09-14T01:16:25;32.30;;;30.13;;
33644;SDS011;19986;48.190;16.366;2022-09-14T01:19:05;33.28;;;31.08;;
33644;SDS011;19986;48.190;16.366;2022-09-14T01:21:39;32.25;;;30.23;;
33644;SDS011;19986;48.190;16.366;2022-09-14T01:38:03;33.95;;;32.15;;
33644;SDS011;19986;48.190;16.366;2022-09-14T01:40:38;31.58;;;29.65;;
33644;SDS011;19986;48.190;16.366;2022-09-14T01:43:10;34.13;;;32.22;;
33644;SDS011;19986;48.190;16.366;2022-09-14T01:45:42;32.80;;;31.02;;
33644;SDS011;19986;48.190;16.366;2022-09-14T01:48:12;33.40;;;31.45;;
33644;SDS011;19986;48.190;16.366;2022-09-14T01:50:44;30.95;;;29.08;;
33644;SDS011;19986;48.190;16.366;2022-09-14T01:53:14;30.02;;;28.17;;
33644;SDS011;19986;48.190;16.366;2022-09-14T01:58:46;31.90;;;30.08;;
33644;SDS011;19986;48.190;16.366;2022-09-14T02:01:21;32.05;;;30.40;;
33644;SDS011;19986;48.190;16.366;2022-09-14T02:03:54;31.35;;;29.55;;
33644;SDS011;19986;48.190;16.366;2022-09-14T02:06:25;32.33;;;30.67;;
33644;SDS011;19986;48.190;16.366;2022-09-14T02:08:56;32.67;;;30.77;;
33644;SDS011;19986;48.190;16.366;2022-09-14T02:11:24;31.40;;;29.80;;
33644;SDS011;19986;48.190;16.366;2022-09-14T02:13:50;32.08;;;30.27;;
33644;SDS011;19986;48.190;16.366;2022-09-14T02:16:17;32.75;;;30.95;;
33644;SDS011;19986;48.190;16.366;2022-09-14T02:18:45;31.30;;;29.58;;
33644;SDS011;19986;48.190;16.366;2022-09-14T02:21:21;32.58;;;30.88;;
33644;SDS011;19986;48.190;16.366;2022-09-14T02:23:51;31.83;;;30.00;;
33644;SDS011;19986;48.190;16.366;2022-09-14T02:26:19;33.45;;;31.58;;
33644;SDS011;19986;48.190;16.366;2022-09-14T02:28:47;30.60;;;28.90;;
33644;SDS011;19986;48.190;16.366;2022-09-14T02:34:09;29.63;;;27.98;;
33644;SDS011;19986;48.190;16.366;2022-09-14T02:42:38;30.55;;;28.63;;
33644;SDS011;19986;48.190;16.366;2022-09-14T02:48:04;31.08;;;29.38;;
33644;SDS011;19986;48.190;16.366;2022-09-14T02:50:53;31.55;;;29.95;;
33644;SDS011;19986;48.190;16.366;2022-09-14T02:56:03;31.35;;;29.65;;
33644;SDS011;19986;48.190;16.366;2022-09-14T02:58:42;31.88;;;29.77;;
33644;SDS011;19986;48.190;16.366;2022-09-14T03:01:12;31.17;;;29.35;;
33644;SDS011;19986;48.190;16.366;2022-09-14T03:03:40;31.40;;;29.75;;
33644;SDS011;19986;48.190;16.366;2022-09-14T03:06:07;31.00;;;29.30;;
33644;SDS011;19986;48.190;16.366;2022-09-14T03:08:34;32.05;;;30.13;;
33644;SDS011;19986;48.190;16.366;2022-09-14T03:11:01;31.10;;;29.42;;
33644;SDS011;19986;48.190;16.366;2022-09-14T03:13:28;32.40;;;30.80;;
33644;SDS011;19986;48.190;16.366;2022-09-14T03:15:54;30.50;;;28.90;;
33644;SDS011;19986;48.190;16.366;2022-09-14T03:18:20;30.63;;;28.90;;
33644;SDS011;19986;48.190;16.366;2022-09-14T03:20:47;30.25;;;28.55;;
33644;SDS011;19986;48.190;16.366;2022-09-14T03:23:13;31.58;;;29.75;;
33644;SDS011;19986;48.190;16.366;2022-09-14T03:25:41;30.25;;;28.75;;
33644;SDS011;19986;48.190;16.366;2022-09-14T03:28:08;31.17;;;29.42;;
33644;SDS011;19986;48.190;16.366;2022-09-14T03:30:35;30.02;;;28.35;;
33644;SDS011;19986;48.190;16.366;2022-09-14T03:33:02;31.67;;;30.00;;
33644;SDS011;19986;48.190;16.366;2022-09-14T03:35:30;31.83;;;30.13;;
33644;SDS011;19986;48.190;16.366;2022-09-14T03:37:57;31.80;;;30.00;;
33644;SDS011;19986;48.190;16.366;2022-09-14T03:40:24;30.80;;;28.95;;
33644;SDS011;19986;48.190;16.366;2022-09-14T03:42:51;30.63;;;28.88;;
33644;SDS011;19986;48.190;16.366;2022-09-14T03:45:19;32.22;;;30.40;;
33644;SDS011;19986;48.190;16.366;2022-09-14T03:47:46;31.67;;;29.92;;
33644;SDS011;19986;48.190;16.366;2022-09-14T03:50:15;32.50;;;30.40;;
33644;SDS011;19986;48.190;16.366;2022-09-14T03:52:41;31.00;;;28.95;;
33644;SDS011;19986;48.190;16.366;2022-09-14T03:55:08;32.28;;;30.23;;
33644;SDS011;19986;48.190;16.366;2022-09-14T03:57:35;33.33;;;31.30;;
33644;SDS011;19986;48.190;16.366;2022-09-14T04:00:04;32.75;;;30.95;;
33644;SDS011;19986;48.190;16.366;2022-09-14T04:02:31;30.67;;;28.88;;
33644;SDS011;19986;48.190;16.366;2022-09-14T04:05:00;31.35;;;29.77;;
33644;SDS011;19986;48.190;16.366;2022-09-14T04:07:26;32.03;;;30.33;;
33644;SDS011;19986;48.190;16.366;2022-09-14T04:09:52;32.28;;;30.10;;
33644;SDS011;19986;48.190;16.366;2022-09-14T04:12:18;31.50;;;29.70;;
33644;SDS011;19986;48.190;16.366;2022-09-14T04:14:44;32.35;;;30.45;;
33644;SDS011;19986;48.190;16.366;2022-09-14T04:17:09;32.05;;;30.45;;
33644;SDS011;19986;48.190;16.366;2022-09-14T04:19:35;31.38;;;29.70;;
33644;SDS011;19986;48.190;16.366;2022-09-14T04:22:05;32.03;;;29.80;;
33644;SDS011;19986;48.190;16.366;2022-09-14T04:24:31;31.35;;;29.25;;
33644;SDS011;19986;48.190;16.366;2022-09-14T04:26:57;32.60;;;31.00;;
33644;SDS011;19986;48.190;16.366;2022-09-14T04:29:23;32.42;;;30.25;;
33644;SDS011;19986;48.190;16.366;2022-09-14T04:31:49;32.67;;;30.80;;
33644;SDS011;19986;48.190;16.366;2022-09-14T04:34:15;31.13;;;29.45;;
33644;SDS011;19986;48.190;16.366;2022-09-14T04:36:41;32.53;;;30.70;;
33644;SDS011;19986;48.190;16.366;2022-09-14T04:39:08;31.30;;;29.27;;
33644;SDS011;19986;48.190;16.366;2022-09-14T04:41:36;31.23;;;29.52;;
33644;SDS011;19986;48.190;16.366;2022-09-14T04:44:01;33.65;;;31.65;;
33644;SDS011;19986;48.190;16.366;2022-09-14T04:46:29;33.58;;;31.35;;
33644;SDS011;19986;48.190;16.366;2022-09-14T04:48:56;31.45;;;29.45;;
33644;SDS011;19986;48.190;16.366;2022-09-14T04:51:24;31.83;;;29.88;;
33644;SDS011;19986;48.190;16.366;2022-09-14T04:53:54;33.35;;;31.10;;
33644;SDS011;19986;48.190;16.366;2022-09-14T04:56:23;34.33;;;31.95;;
33644;SDS011;19986;48.190;16.366;2022-09-14T04:58:51;33.95;;;31.33;;
33644;SDS011;19986;48.190;16.366;2022-09-14T05:01:20;36.03;;;33.60;;
33644;SDS011;19986;48.190;16.366;2022-09-14T05:03:47;33.92;;;31.63;;
33644;SDS011;19986;48.190;16.366;2022-09-14T05:06:15;35.33;;;32.70;;
33644;SDS011;19986;48.190;16.366;2022-09-14T05:08:42;35.65;;;33.15;;
33644;SDS011;19986;48.190;16.366;2022-09-14T05:11:11;34.15;;;31.95;;
33644;SDS011;19986;48.190;16.366;2022-09-14T05:13:39;36.10;;;33.13;;
33644;SDS011;19986;48.190;16.366;2022-09-14T05:18:42;38.10;;;35.35;;
33644;SDS011;19986;48.190;16.366;2022-09-14T05:21:12;34.67;;;32.47;;
33644;SDS011;19986;48.190;16.366;2022-09-14T05:23:40;33.47;;;31.25;;
33644;SDS011;19986;48.190;16.366;2022-09-14T05:26:06;32.50;;;30.70;;
33644;SDS011;19986;48.190;16.366;2022-09-14T05:28:33;32.45;;;30.58;;
33644;SDS011;19986;48.190;16.366;2022-09-14T05:31:05;31.67;;;29.92;;
33644;SDS011;19986;48.190;16.366;2022-09-14T05:33:32;33.83;;;31.60;;
33644;SDS011;19986;48.190;16.366;2022-09-14T05:36:02;34.25;;;32.05;;
33644;SDS011;19986;48.190;16.366;2022-09-14T05:38:35;34.13;;;31.70;;
33644;SDS011;19986;48.190;16.366;2022-09-14T05:41:04;35.20;;;33.13;;
33644;SDS011;19986;48.190;16.366;2022-09-14T05:43:34;34.35;;;32.30;;
33644;SDS011;19986;48.190;16.366;2022-09-14T05:46:04;32.35;;;30.35;;
33644;SDS011;19986;48.190;16.366;2022-09-14T05:48:44;32.63;;;30.52;;
33644;SDS011;19986;48.190;16.366;2022-09-14T05:51:14;33.67;;;31.63;;
33644;SDS011;19986;48.190;16.366;2022-09-14T05:53:45;31.80;;;29.70;;
33644;SDS011;19986;48.190;16.366;2022-09-14T05:56:15;38.17;;;35.45;;
33644;SDS011;19986;48.190;16.366;2022-09-14T05:58:42;32.60;;;30.67;;
33644;SDS011;19986;48.190;16.366;2022-09-14T06:01:09;33.55;;;31.40;;
33644;SDS011;19986;48.190;16.366;2022-09-14T06:03:35;33.88;;;31.52;;
33644;SDS011;19986;48.190;16.366;2022-09-14T06:06:02;33.50;;;30.92;;
33644;SDS011;19986;48.190;16.366;2022-09-14T06:08:29;33.00;;;31.00;;
33644;SDS011;19986;48.190;16.366;2022-09-14T06:10:55;33.60;;;31.23;;
33644;SDS011;19986;48.190;16.366;2022-09-14T06:13:26;32.72;;;30.25;;
33644;SDS011;19986;48.190;16.366;2022-09-14T06:15:52;32.67;;;30.65;;
33644;SDS011;19986;48.190;16.366;2022-09-14T06:18:19;32.08;;;30.05;;
33644;SDS011;19986;48.190;16.366;2022-09-14T06:20:50;31.60;;;29.80;;
33644;SDS011;19986;48.190;16.366;2022-09-14T06:23:16;32.85;;;30.55;;
33644;SDS011;19986;48.190;16.366;2022-09-14T06:25:42;32.97;;;30.92;;
33644;SDS011;19986;48.190;16.366;2022-09-14T06:28:08;31.88;;;29.92;;
33644;SDS011;19986;48.190;16.366;2022-09-14T06:30:34;31.88;;;29.67;;
33644;SDS011;19986;48.190;16.366;2022-09-14T06:33:00;31.90;;;29.55;;
33644;SDS011;19986;48.190;16.366;2022-09-14T06:35:28;32.63;;;30.67;;
33644;SDS011;19986;48.190;16.366;2022-09-14T06:37:54;34.65;;;32.05;;
33644;SDS011;19986;48.190;16.366;2022-09-14T06:40:20;35.28;;;32.85;;
33644;SDS011;19986;48.190;16.366;2022-09-14T06:42:46;32.13;;;30.13;;
33644;SDS011;19986;48.190;16.366;2022-09-14T06:45:12;34.40;;;31.98;;
33644;SDS011;19986;48.190;16.366;2022-09-14T06:47:37;35.58;;;33.13;;
33644;SDS011;19986;48.190;16.366;2022-09-14T06:50:03;31.70;;;29.55;;
33644;SDS011;19986;48.190;16.366;2022-09-14T06:52:30;34.33;;;31.50;;
33644;SDS011;19986;48.190;16.366;2022-09-14T06:54:55;33.42;;;30.98;;
33644;SDS011;19986;48.190;16.366;2022-09-14T06:57:21;33.78;;;31.52;;
33644;SDS011;19986;48.190;16.366;2022-09-14T06:59:47;33.65;;;31.35;;
33644;SDS011;19986;48.190;16.366;2022-09-14T07:02:13;33.78;;;31.45;;
33644;SDS011;19986;48.190;16.366;2022-09-14T07:04:39;35.03;;;32.60;;
33644;SDS011;19986;48.190;16.366;2022-09-14T07:07:05;36.00;;;33.53;;
33644;SDS011;19986;48.190;16.366;2022-09-14T07:09:31;35.15;;;32.63;;
33644;SDS011;19986;48.190;16.366;2022-09-14T07:11:56;34.38;;;32.28;;
33644;SDS011;19986;48.190;16.366;2022-09-14T07:14:22;36.67;;;34.10;;
33644;SDS011;19986;48.190;16.366;2022-09-14T07:16:48;36.08;;;33.60;;
33644;SDS011;19986;48.190;16.366;2022-09-14T07:19:14;36.35;;;33.42;;
33644;SDS011;19986;48.190;16.366;2022-09-14T07:21:40;37.63;;;35.05;;
33644;SDS011;19986;48.190;16.366;2022-09-14T07:24:06;34.20;;;31.83;;
33644;SDS011;19986;48.190;16.366;2022-09-14T07:26:33;36.15;;;33.47;;
33644;SDS011;19986;48.190;16.366;2022-09-14T07:29:07;32.28;;;30.23;;
33644;SDS011;19986;48.190;16.366;2022-09-14T07:31:42;33.88;;;31.42;;
33644;SDS011;19986;48.190;16.366;2022-09-14T07:34:10;33.35;;;31.05;;
33644;SDS011;19986;48.190;16.366;2022-09-14T07:36:36;34.35;;;31.77;;
33644;SDS011;19986;48.190;16.366;2022-09-14T07:39:04;34.20;;;31.58;;
33644;SDS011;19986;48.190;16.366;2022-09-14T07:41:33;34.50;;;32.30;;
33644;SDS011;19986;48.190;16.366;2022-09-14T07:44:00;33.88;;;31.30;;
33644;SDS011;19986;48.190;16.366;2022-09-14T07:46:28;33.95;;;31.60;;
33644;SDS011;19986;48.190;16.366;2022-09-14T07:48:58;34.72;;;32.22;;
33644;SDS011;19986;48.190;16.366;2022-09-14T07:51:26;35.40;;;33.05;;
33644;SDS011;19986;48.190;16.366;2022-09-14T07:53:53;36.03;;;33.40;;
33644;SDS011;19986;48.190;16.366;2022-09-14T07:56:19;34.00;;;31.67;;
33644;SDS011;19986;48.190;16.366;2022-09-14T07:58:46;34.70;;;32.35;;
33644;SDS011;19986;48.190;16.366;2022-09-14T08:01:13;33.05;;;31.05;;
33644;SDS011;19986;48.190;16.366;2022-09-14T08:03:44;35.22;;;32.70;;
33644;SDS011;19986;48.190;16.366;2022-09-14T08:06:19;35.67;;;33.17;;
33644;SDS011;19986;48.190;16.366;2022-09-14T08:08:48;35.47;;;32.50;;
33644;SDS011;19986;48.190;16.366;2022-09-14T08:11:16;34.20;;;31.77;;
33644;SDS011;19986;48.190;16.366;2022-09-14T08:13:51;34.10;;;31.90;;
33644;SDS011;19986;48.190;16.366;2022-09-14T08:16:18;36.60;;;33.85;;
33644;SDS011;19986;48.190;16.366;2022-09-14T08:18:46;35.83;;;33.45;;
33644;SDS011;19986;48.190;16.366;2022-09-14T08:21:14;36.25;;;34.03;;
33644;SDS011;19986;48.190;16.366;2022-09-14T08:23:41;36.70;;;34.08;;
33644;SDS011;19986;48.190;16.366;2022-09-14T08:26:09;36.92;;;34.58;;
33644;SDS011;19986;48.190;16.366;2022-09-14T08:28:40;36.20;;;33.53;;
33644;SDS011;19986;48.190;16.366;2022-09-14T08:31:09;37.13;;;34.47;;
33644;SDS011;19986;48.190;16.366;2022-09-14T08:33:41;36.10;;;33.60;;
33644;SDS011;19986;48.190;16.366;2022-09-14T08:36:12;36.88;;;34.60;;
33644;SDS011;19986;48.190;16.366;2022-09-14T08:38:42;37.22;;;34.53;;
33644;SDS011;19986;48.190;16.366;2022-09-14T08:41:18;37.92;;;35.63;;
33644;SDS011;19986;48.190;16.366;2022-09-14T08:43:47;38.38;;;35.40;;
33644;SDS011;19986;48.190;16.366;2022-09-14T08:46:17;35.83;;;33.47;;
33644;SDS011;19986;48.190;16.366;2022-09-14T08:48:51;36.97;;;34.38;;
33644;SDS011;19986;48.190;16.366;2022-09-14T08:51:17;37.10;;;34.83;;
33644;SDS011;19986;48.190;16.366;2022-09-14T08:53:43;38.85;;;35.83;;
33644;SDS011;19986;48.190;16.366;2022-09-14T08:56:23;38.05;;;35.20;;
33644;SDS011;19986;48.190;16.366;2022-09-14T09:09:44;37.30;;;34.72;;
33644;SDS011;19986;48.190;16.366;2022-09-14T09:12:13;39.92;;;37.13;;
33644;SDS011;19986;48.190;16.366;2022-09-14T09:14:54;40.80;;;37.42;;
33644;SDS011;19986;48.190;16.366;2022-09-14T09:20:12;37.45;;;34.60;;
33644;SDS011;19986;48.190;16.366;2022-09-14T09:22:42;41.58;;;38.60;;
33644;SDS011;19986;48.190;16.366;2022-09-14T09:25:17;39.50;;;36.60;;
33644;SDS011;19986;48.190;16.366;2022-09-14T09:27:47;39.83;;;37.17;;
33644;SDS011;19986;48.190;16.366;2022-09-14T09:30:24;36.97;;;34.17;;
33644;SDS011;19986;48.190;16.366;2022-09-14T09:32:52;38.95;;;35.88;;
33644;SDS011;19986;48.190;16.366;2022-09-14T09:35:19;40.60;;;37.47;;
33644;SDS011;19986;48.190;16.366;2022-09-14T09:37:48;37.47;;;34.70;;
33644;SDS011;19986;48.190;16.366;2022-09-14T09:40:15;39.40;;;36.95;;
33644;SDS011;19986;48.190;16.366;2022-09-14T09:43:02;36.10;;;33.65;;
33644;SDS011;19986;48.190;16.366;2022-09-14T09:45:46;36.05;;;33.40;;
33644;SDS011;19986;48.190;16.366;2022-09-14T09:48:27;36.25;;;33.83;;
33644;SDS011;19986;48.190;16.366;2022-09-14T09:56:58;35.40;;;32.97;;
33644;SDS011;19986;48.190;16.366;2022-09-14T09:59:34;36.60;;;33.85;;
33644;SDS011;19986;48.190;16.366;2022-09-14T10:02:29;36.05;;;33.55;;
33644;SDS011;19986;48.190;16.366;2022-09-14T10:07:22;37.70;;;35.25;;
33644;SDS011;19986;48.190;16.366;2022-09-14T10:10:23;35.42;;;33.05;;
33644;SDS011;19986;48.190;16.366;2022-09-14T10:12:47;37.55;;;34.92;;
33644;SDS011;19986;48.190;16.366;2022-09-14T10:15:16;37.53;;;35.15;;
33644;SDS011;19986;48.190;16.366;2022-09-14T10:20:20;37.35;;;34.63;;
33644;SDS011;19986;48.190;16.366;2022-09-14T10:22:48;37.70;;;35.08;;
33644;SDS011;19986;48.190;16.366;2022-09-14T10:35:42;39.97;;;37.08;;
33644;SDS011;19986;48.190;16.366;2022-09-14T10:41:15;40.53;;;37.83;;
33644;SDS011;19986;48.190;16.366;2022-09-14T10:46:39;40.30;;;37.35;;
33644;SDS011;19986;48.190;16.366;2022-09-14T10:55:20;39.97;;;37.10;;
33644;SDS011;19986;48.190;16.366;2022-09-14T11:09:02;40.50;;;37.72;;
33644;SDS011;19986;48.190;16.366;2022-09-14T11:16:58;42.17;;;39.22;;
33644;SDS011;19986;48.190;16.366;2022-09-14T11:19:31;42.22;;;39.22;;
33644;SDS011;19986;48.190;16.366;2022-09-14T11:24:58;43.25;;;40.22;;
33644;SDS011;19986;48.190;16.366;2022-09-14T11:30:20;47.50;;;43.83;;
33644;SDS011;19986;48.190;16.366;2022-09-14T11:32:55;44.85;;;41.40;;
33644;SDS011;19986;48.190;16.366;2022-09-14T11:38:20;48.13;;;44.55;;
33644;SDS011;19986;48.190;16.366;2022-09-14T11:46:05;41.60;;;38.47;;
33644;SDS011;19986;48.190;16.366;2022-09-14T11:48:47;43.40;;;40.00;;
33644;SDS011;19986;48.190;16.366;2022-09-14T11:54:20;41.33;;;38.35;;
33644;SDS011;19986;48.190;16.366;2022-09-14T11:56:48;37.97;;;35.40;;
33644;SDS011;19986;48.190;16.366;2022-09-14T12:12:39;35.47;;;33.22;;
33644;SDS011;19986;48.190;16.366;2022-09-14T12:17:51;32.25;;;30.20;;
33644;SDS011;19986;48.190;16.366;2022-09-14T12:28:40;33.30;;;31.15;;
33644;SDS011;19986;48.190;16.366;2022-09-14T12:31:59;34.95;;;32.55;;
33644;SDS011;19986;48.190;16.366;2022-09-14T12:39:20;31.88;;;29.73;;
33644;SDS011;19986;48.190;16.366;2022-09-14T12:49:56;32.85;;;30.83;;
33644;SDS011;19986;48.190;16.366;2022-09-14T12:52:32;32.15;;;29.95;;
33644;SDS011;19986;48.190;16.366;2022-09-14T13:03:47;34.13;;;31.85;;
33644;SDS011;19986;48.190;16.366;2022-09-14T13:06:22;34.47;;;32.30;;
33644;SDS011;19986;48.190;16.366;2022-09-14T13:08:56;34.60;;;31.98;;
33644;SDS011;19986;48.190;16.366;2022-09-14T13:11:40;32.85;;;30.70;;
33644;SDS011;19986;48.190;16.366;2022-09-14T13:14:11;31.98;;;29.80;;
33644;SDS011;19986;48.190;16.366;2022-09-14T13:16:43;34.85;;;32.17;;
33644;SDS011;19986;48.190;16.366;2022-09-14T13:19:22;32.28;;;30.10;;
33644;SDS011;19986;48.190;16.366;2022-09-14T13:21:51;33.42;;;31.17;;
33644;SDS011;19986;48.190;16.366;2022-09-14T13:26:50;32.85;;;30.20;;
33644;SDS011;19986;48.190;16.366;2022-09-14T13:29:17;30.42;;;28.63;;
33644;SDS011;19986;48.190;16.366;2022-09-14T13:31:43;33.13;;;31.08;;
33644;SDS011;19986;48.190;16.366;2022-09-14T13:34:22;33.40;;;30.63;;
33644;SDS011;19986;48.190;16.366;2022-09-14T13:36:54;30.80;;;28.73;;
33644;SDS011;19986;48.190;16.366;2022-09-14T13:39:27;31.52;;;29.27;;
33644;SDS011;19986;48.190;16.366;2022-09-14T13:42:04;33.25;;;31.15;;
33644;SDS011;19986;48.190;16.366;2022-09-14T13:44:32;31.55;;;29.35;;
33644;SDS011;19986;48.190;16.366;2022-09-14T13:47:01;32.38;;;30.17;;
33644;SDS011;19986;48.190;16.366;2022-09-14T13:49:29;34.60;;;31.85;;
33644;SDS011;19986;48.190;16.366;2022-09-14T13:54:52;31.20;;;28.85;;
33644;SDS011;19986;48.190;16.366;2022-09-14T13:57:36;32.33;;;30.10;;
33644;SDS011;19986;48.190;16.366;2022-09-14T14:02:45;33.40;;;31.15;;
33644;SDS011;19986;48.190;16.366;2022-09-14T14:05:40;29.38;;;27.55;;
33644;SDS011;19986;48.190;16.366;2022-09-14T14:08:28;30.25;;;28.25;;
33644;SDS011;19986;48.190;16.366;2022-09-14T14:10:55;30.98;;;28.98;;
33644;SDS011;19986;48.190;16.366;2022-09-14T14:13:23;31.65;;;29.17;;
33644;SDS011;19986;48.190;16.366;2022-09-14T14:15:51;33.10;;;30.17;;
33644;SDS011;19986;48.190;16.366;2022-09-14T14:21:03;30.65;;;28.85;;
33644;SDS011;19986;48.190;16.366;2022-09-14T14:23:41;31.23;;;28.88;;
33644;SDS011;19986;48.190;16.366;2022-09-14T14:26:09;31.50;;;29.17;;
33644;SDS011;19986;48.190;16.366;2022-09-14T14:28:38;31.42;;;29.13;;
33644;SDS011;19986;48.190;16.366;2022-09-14T14:31:05;30.92;;;28.60;;
33644;SDS011;19986;48.190;16.366;2022-09-14T14:33:48;30.88;;;28.85;;
33644;SDS011;19986;48.190;16.366;2022-09-14T14:36:16;28.98;;;27.02;;
33644;SDS011;19986;48.190;16.366;2022-09-14T14:38:44;31.65;;;29.60;;
33644;SDS011;19986;48.190;16.366;2022-09-14T14:41:16;29.20;;;27.02;;
33644;SDS011;19986;48.190;16.366;2022-09-14T14:43:45;31.73;;;29.58;;
33644;SDS011;19986;48.190;16.366;2022-09-14T14:46:14;30.15;;;28.08;;
33644;SDS011;19986;48.190;16.366;2022-09-14T14:48:42;29.85;;;27.95;;
33644;SDS011;19986;48.190;16.366;2022-09-14T14:51:12;30.02;;;27.88;;
33644;SDS011;19986;48.190;16.366;2022-09-14T14:53:39;30.23;;;28.05;;
33644;SDS011;19986;48.190;16.366;2022-09-14T14:56:06;30.85;;;28.80;;
33644;SDS011;19986;48.190;16.366;2022-09-14T14:58:40;30.70;;;28.55;;
33644;SDS011;19986;48.190;16.366;2022-09-14T15:01:12;30.15;;;27.90;;
33644;SDS011;19986;48.190;16.366;2022-09-14T15:03:40;27.95;;;26.20;;
33644;SDS011;19986;48.190;16.366;2022-09-14T15:06:10;30.75;;;28.25;;
33644;SDS011;19986;48.190;16.366;2022-09-14T15:08:52;30.52;;;28.38;;
33644;SDS011;19986;48.190;16.366;2022-09-14T15:11:22;31.85;;;29.27;;
33644;SDS011;19986;48.190;16.366;2022-09-14T15:13:50;29.27;;;27.50;;
33644;SDS011;19986;48.190;16.366;2022-09-14T15:16:16;30.02;;;28.13;;
33644;SDS011;19986;48.190;16.366;2022-09-14T15:18:42;31.30;;;29.05;;
33644;SDS011;19986;48.190;16.366;2022-09-14T15:21:10;29.98;;;27.88;;
33644;SDS011;19986;48.190;16.366;2022-09-14T15:23:40;28.48;;;26.30;;
33644;SDS011;19986;48.190;16.366;2022-09-14T15:26:06;30.65;;;28.20;;
33644;SDS011;19986;48.190;16.366;2022-09-14T15:28:32;28.50;;;26.80;;
33644;SDS011;19986;48.190;16.366;2022-09-14T15:31:03;27.98;;;26.13;;
33644;SDS011;19986;48.190;16.366;2022-09-14T15:33:30;30.55;;;28.40;;
33644;SDS011;19986;48.190;16.366;2022-09-14T15:35:56;29.08;;;27.15;;
33644;SDS011;19986;48.190;16.366;2022-09-14T15:38:23;29.05;;;27.30;;
33644;SDS011;19986;48.190;16.366;2022-09-14T15:40:49;31.00;;;29.05;;
33644;SDS011;19986;48.190;16.366;2022-09-14T15:43:15;29.55;;;27.77;;
33644;SDS011;19986;48.190;16.366;2022-09-14T15:45:44;28.25;;;26.55;;
33644;SDS011;19986;48.190;16.366;2022-09-14T15:48:14;31.27;;;29.02;;
33644;SDS011;19986;48.190;16.366;2022-09-14T15:50:42;30.98;;;28.95;;
33644;SDS011;19986;48.190;16.366;2022-09-14T15:53:15;30.40;;;28.40;;
33644;SDS011;19986;48.190;16.366;2022-09-14T15:55:49;30.70;;;28.80;;
33644;SDS011;19986;48.190;16.366;2022-09-14T15:58:14;29.63;;;27.90;;
33644;SDS011;19986;48.190;16.366;2022-09-14T16:00:43;28.20;;;26.25;;
33644;SDS011;19986;48.190;16.366;2022-09-14T16:03:09;28.98;;;27.27;;
33644;SDS011;19986;48.190;16.366;2022-09-14T16:05:36;29.90;;;27.67;;
33644;SDS011;19986;48.190;16.366;2022-09-14T16:08:03;29.83;;;27.90;;
33644;SDS011;19986;48.190;16.366;2022-09-14T16:10:29;30.30;;;28.42;;
33644;SDS011;19986;48.190;16.366;2022-09-14T16:12:55;30.00;;;27.70;;
33644;SDS011;19986;48.190;16.366;2022-09-14T16:15:21;29.20;;;27.50;;
33644;SDS011;19986;48.190;16.366;2022-09-14T16:17:48;30.10;;;28.13;;
33644;SDS011;19986;48.190;16.366;2022-09-14T16:20:16;29.73;;;27.73;;
33644;SDS011;19986;48.190;16.366;2022-09-14T16:22:41;30.38;;;28.25;;
33644;SDS011;19986;48.190;16.366;2022-09-14T16:25:07;31.30;;;29.20;;
33644;SDS011;19986;48.190;16.366;2022-09-14T16:27:33;31.00;;;29.20;;
33644;SDS011;19986;48.190;16.366;2022-09-14T16:29:59;30.75;;;28.52;;
33644;SDS011;19986;48.190;16.366;2022-09-14T16:32:25;31.13;;;29.25;;
33644;SDS011;19986;48.190;16.366;2022-09-14T16:34:51;31.50;;;29.40;;
33644;SDS011;19986;48.190;16.366;2022-09-14T16:37:17;32.40;;;30.40;;
33644;SDS011;19986;48.190;16.366;2022-09-14T16:39:44;31.67;;;29.67;;
33644;SDS011;19986;48.190;16.366;2022-09-14T16:42:13;31.60;;;29.20;;
33644;SDS011;19986;48.190;16.366;2022-09-14T16:44:40;31.08;;;29.27;;
33644;SDS011;19986;48.190;16.366;2022-09-14T16:47:06;31.08;;;29.35;;
33644;SDS011;19986;48.190;16.366;2022-09-14T16:49:35;29.83;;;27.73;;
33644;SDS011;19986;48.190;16.366;2022-09-14T16:52:03;29.98;;;28.17;;
33644;SDS011;19986;48.190;16.366;2022-09-14T16:54:29;32.58;;;30.52;;
33644;SDS011;19986;48.190;16.366;2022-09-14T16:56:56;30.67;;;28.65;;
33644;SDS011;19986;48.190;16.366;2022-09-14T16:59:23;31.55;;;29.55;;
33644;SDS011;19986;48.190;16.366;2022-09-14T17:01:50;31.13;;;28.60;;
33644;SDS011;19986;48.190;16.366;2022-09-14T17:04:17;32.55;;;30.52;;
33644;SDS011;19986;48.190;16.366;2022-09-14T17:06:46;33.97;;;31.77;;
33644;SDS011;19986;48.190;16.366;2022-09-14T17:09:26;31.73;;;29.75;;
33644;SDS011;19986;48.190;16.366;2022-09-14T17:11:54;32.78;;;30.75;;
33644;SDS011;19986;48.190;16.366;2022-09-14T17:14:23;33.83;;;31.30;;
33644;SDS011;19986;48.190;16.366;2022-09-14T17:16:53;33.33;;;30.77;;
33644;SDS011;19986;48.190;16.366;2022-09-14T17:19:20;33.92;;;31.52;;